sensor_id;sensor_type;location;lat;lon;timestamp;temperature;humidity
42907;DHT22;28552;51.146;6.576;2022-09-09T00:04:35;15.60;99.90
42907;DHT22;28552;51.146;6.576;2022-09-09T00:07:39;15.60;99.90
42907;DHT22;28552;51.146;6.576;2022-09-09T00:10:41;15.60;99.90
42907;DHT22;28552;51.146;6.576;2022-09-09T00:13:52;15.50;99.90
42907;DHT22;28552;51.146;6.576;2022-09-09T00:16:59;15.50;99.90
42907;DHT22;28552;51.146;6.576;2022-09-09T00:20:13;15.40;99.90
42907;DHT22;28552;51.146;6.576;2022-09-09T00:23:22;15.40;99.90
42907;DHT22;28552;51.146;6.576;2022-09-09T00:26:44;15.30;99.90
42907;DHT22;28552;51.146;6.576;2022-09-09T00:29:53;15.30;99.90
42907;DHT22;28552;51.146;6.576;2022-09-09T00:32:59;15.40;99.90
42907;DHT22;28552;51.146;6.576;2022-09-09T00:36:01;15.40;99.90
42907;DHT22;28552;51.146;6.576;2022-09-09T00:39:04;15.30;99.90
42907;DHT22;28552;51.146;6.576;2022-09-09T00:42:16;15.40;99.90
42907;DHT22;28552;51.146;6.576;2022-09-09T00:45:51;15.40;99.90
42907;DHT22;28552;51.146;6.576;2022-09-09T00:55:15;15.30;99.90
42907;DHT22;28552;51.146;6.576;2022-09-09T00:58:16;15.30;99.90
42907;DHT22;28552;51.146;6.576;2022-09-09T01:01:17;15.30;99.90
42907;DHT22;28552;51.146;6.576;2022-09-09T01:04:25;15.30;99.90
42907;DHT22;28552;51.146;6.576;2022-09-09T01:07:29;15.30;99.90
42907;DHT22;28552;51.146;6.576;2022-09-09T01:10:41;15.20;99.90
42907;DHT22;28552;51.146;6.576;2022-09-09T01:13:52;15.20;99.90
42907;DHT22;28552;51.146;6.576;2022-09-09T01:16:57;15.30;99.90
42907;DHT22;28552;51.146;6.576;2022-09-09T01:20:14;15.30;99.90
42907;DHT22;28552;51.146;6.576;2022-09-09T01:26:52;15.20;99.90
42907;DHT22;28552;51.146;6.576;2022-09-09T01:29:54;15.20;99.90
42907;DHT22;28552;51.146;6.576;2022-09-09T01:32:57;15.20;99.90
42907;DHT22;28552;51.146;6.576;2022-09-09T01:36:02;15.20;99.90
42907;DHT22;28552;51.146;6.576;2022-09-09T01:39:03;15.20;99.90
42907;DHT22;28552;51.146;6.576;2022-09-09T01:42:05;15.20;99.90
42907;DHT22;28552;51.146;6.576;2022-09-09T01:45:07;15.10;99.90
42907;DHT22;28552;51.146;6.576;2022-09-09T01:48:08;15.10;99.90
42907;DHT22;28552;51.146;6.576;2022-09-09T01:51:09;15.10;99.90
42907;DHT22;28552;51.146;6.576;2022-09-09T01:54:10;15.10;99.90
42907;DHT22;28552;51.146;6.576;2022-09-09T01:57:17;15.10;99.90
42907;DHT22;28552;51.146;6.576;2022-09-09T02:00:18;15.10;99.90
42907;DHT22;28552;51.146;6.576;2022-09-09T02:03:28;15.20;99.90
42907;DHT22;28552;51.146;6.576;2022-09-09T02:06:34;15.20;99.90
42907;DHT22;28552;51.146;6.576;2022-09-09T02:09:36;15.20;99.90
42907;DHT22;28552;51.146;6.576;2022-09-09T02:12:43;15.20;99.90
42907;DHT22;28552;51.146;6.576;2022-09-09T02:18:57;15.30;99.90
42907;DHT22;28552;51.146;6.576;2022-09-09T02:22:01;15.30;99.90
42907;DHT22;28552;51.146;6.576;2022-09-09T02:25:04;15.30;99.90
42907;DHT22;28552;51.146;6.576;2022-09-09T02:28:08;15.40;99.90
42907;DHT22;28552;51.146;6.576;2022-09-09T02:31:10;15.40;99.90
42907;DHT22;28552;51.146;6.576;2022-09-09T02:34:12;15.40;99.90
42907;DHT22;28552;51.146;6.576;2022-09-09T02:37:15;15.40;99.90
42907;DHT22;28552;51.146;6.576;2022-09-09T02:40:18;15.40;99.90
42907;DHT22;28552;51.146;6.576;2022-09-09T02:43:18;15.40;99.90
42907;DHT22;28552;51.146;6.576;2022-09-09T02:46:30;15.40;99.90
42907;DHT22;28552;51.146;6.576;2022-09-09T02:56:09;15.50;99.90
42907;DHT22;28552;51.146;6.576;2022-09-09T02:59:15;15.50;99.90
42907;DHT22;28552;51.146;6.576;2022-09-09T03:02:16;15.50;99.90
42907;DHT22;28552;51.146;6.576;2022-09-09T03:05:18;15.50;99.90
42907;DHT22;28552;51.146;6.576;2022-09-09T03:08:19;15.60;99.90
42907;DHT22;28552;51.146;6.576;2022-09-09T03:11:20;15.50;99.90
42907;DHT22;28552;51.146;6.576;2022-09-09T03:14:21;15.60;99.90
42907;DHT22;28552;51.146;6.576;2022-09-09T03:17:24;15.60;99.90
42907;DHT22;28552;51.146;6.576;2022-09-09T03:20:26;15.60;99.90
42907;DHT22;28552;51.146;6.576;2022-09-09T03:23:27;15.60;99.90
42907;DHT22;28552;51.146;6.576;2022-09-09T03:26:28;15.50;99.90
42907;DHT22;28552;51.146;6.576;2022-09-09T03:29:29;15.50;99.90
42907;DHT22;28552;51.146;6.576;2022-09-09T03:32:29;15.50;99.90
42907;DHT22;28552;51.146;6.576;2022-09-09T03:35:31;15.50;99.90
42907;DHT22;28552;51.146;6.576;2022-09-09T03:38:32;15.50;99.90
42907;DHT22;28552;51.146;6.576;2022-09-09T03:41:32;15.50;99.90
42907;DHT22;28552;51.146;6.576;2022-09-09T03:44:34;15.50;99.90
42907;DHT22;28552;51.146;6.576;2022-09-09T03:47:35;15.40;99.90
42907;DHT22;28552;51.146;6.576;2022-09-09T03:50:35;15.40;99.90
42907;DHT22;28552;51.146;6.576;2022-09-09T03:53:36;15.40;99.90
42907;DHT22;28552;51.146;6.576;2022-09-09T03:56:38;15.40;99.90
42907;DHT22;28552;51.146;6.576;2022-09-09T03:59:39;15.40;99.90
42907;DHT22;28552;51.146;6.576;2022-09-09T04:02:39;15.40;99.90
42907;DHT22;28552;51.146;6.576;2022-09-09T04:05:40;15.40;99.90
42907;DHT22;28552;51.146;6.576;2022-09-09T04:08:42;15.40;99.90
42907;DHT22;28552;51.146;6.576;2022-09-09T04:11:43;15.40;99.90
42907;DHT22;28552;51.146;6.576;2022-09-09T04:14:43;15.40;99.90
42907;DHT22;28552;51.146;6.576;2022-09-09T04:17:44;15.40;99.90
42907;DHT22;28552;51.146;6.576;2022-09-09T04:20:48;15.40;99.90
42907;DHT22;28552;51.146;6.576;2022-09-09T04:23:48;15.40;99.90
42907;DHT22;28552;51.146;6.576;2022-09-09T04:26:49;15.50;99.90
42907;DHT22;28552;51.146;6.576;2022-09-09T04:29:50;15.50;99.90
42907;DHT22;28552;51.146;6.576;2022-09-09T04:32:50;15.50;99.90
42907;DHT22;28552;51.146;6.576;2022-09-09T04:35:51;15.50;99.90
42907;DHT22;28552;51.146;6.576;2022-09-09T04:38:54;15.60;99.90
42907;DHT22;28552;51.146;6.576;2022-09-09T04:41:54;15.60;99.90
42907;DHT22;28552;51.146;6.576;2022-09-09T04:44:55;15.60;99.90
42907;DHT22;28552;51.146;6.576;2022-09-09T04:47:56;15.60;99.90
42907;DHT22;28552;51.146;6.576;2022-09-09T04:50:59;15.60;99.90
42907;DHT22;28552;51.146;6.576;2022-09-09T04:54:00;15.60;99.90
42907;DHT22;28552;51.146;6.576;2022-09-09T04:57:00;15.70;99.90
42907;DHT22;28552;51.146;6.576;2022-09-09T05:00:02;15.70;99.90
42907;DHT22;28552;51.146;6.576;2022-09-09T05:03:04;15.70;99.90
42907;DHT22;28552;51.146;6.576;2022-09-09T05:06:07;15.80;99.90
42907;DHT22;28552;51.146;6.576;2022-09-09T05:09:09;15.80;99.90
42907;DHT22;28552;51.146;6.576;2022-09-09T05:12:09;15.80;99.90
42907;DHT22;28552;51.146;6.576;2022-09-09T05:15:10;15.90;99.90
42907;DHT22;28552;51.146;6.576;2022-09-09T05:18:10;15.90;99.90
42907;DHT22;28552;51.146;6.576;2022-09-09T05:21:12;15.90;99.90
42907;DHT22;28552;51.146;6.576;2022-09-09T05:24:12;15.90;99.90
42907;DHT22;28552;51.146;6.576;2022-09-09T05:27:13;16.00;99.90
42907;DHT22;28552;51.146;6.576;2022-09-09T05:30:14;16.00;99.90
42907;DHT22;28552;51.146;6.576;2022-09-09T05:33:14;16.00;99.90
42907;DHT22;28552;51.146;6.576;2022-09-09T05:36:16;16.00;99.90
42907;DHT22;28552;51.146;6.576;2022-09-09T05:39:17;16.10;99.90
42907;DHT22;28552;51.146;6.576;2022-09-09T05:42:18;16.10;99.90
42907;DHT22;28552;51.146;6.576;2022-09-09T05:45:19;16.10;99.90
42907;DHT22;28552;51.146;6.576;2022-09-09T05:48:20;16.10;99.90
42907;DHT22;28552;51.146;6.576;2022-09-09T05:51:23;16.20;99.90
42907;DHT22;28552;51.146;6.576;2022-09-09T05:54:24;16.20;99.90
42907;DHT22;28552;51.146;6.576;2022-09-09T05:57:24;16.20;99.90
42907;DHT22;28552;51.146;6.576;2022-09-09T06:00:25;16.20;99.90
42907;DHT22;28552;51.146;6.576;2022-09-09T06:03:26;16.20;99.90
42907;DHT22;28552;51.146;6.576;2022-09-09T06:06:30;16.20;99.90
42907;DHT22;28552;51.146;6.576;2022-09-09T06:09:32;16.20;99.90
42907;DHT22;28552;51.146;6.576;2022-09-09T06:12:32;16.30;99.90
42907;DHT22;28552;51.146;6.576;2022-09-09T06:15:33;16.30;99.90
42907;DHT22;28552;51.146;6.576;2022-09-09T06:18:34;16.30;99.90
42907;DHT22;28552;51.146;6.576;2022-09-09T06:21:36;16.30;99.90
42907;DHT22;28552;51.146;6.576;2022-09-09T06:24:37;16.40;99.90
42907;DHT22;28552;51.146;6.576;2022-09-09T06:27:37;16.40;99.90
42907;DHT22;28552;51.146;6.576;2022-09-09T06:30:38;16.50;99.90
42907;DHT22;28552;51.146;6.576;2022-09-09T06:33:41;16.50;99.90
42907;DHT22;28552;51.146;6.576;2022-09-09T06:36:41;16.60;99.90
42907;DHT22;28552;51.146;6.576;2022-09-09T06:39:42;16.70;99.90
42907;DHT22;28552;51.146;6.576;2022-09-09T06:42:43;16.80;99.90
42907;DHT22;28552;51.146;6.576;2022-09-09T06:45:43;16.90;99.90
42907;DHT22;28552;51.146;6.576;2022-09-09T06:48:45;17.10;99.90
42907;DHT22;28552;51.146;6.576;2022-09-09T06:51:46;17.30;99.90
42907;DHT22;28552;51.146;6.576;2022-09-09T06:54:47;17.40;99.90
42907;DHT22;28552;51.146;6.576;2022-09-09T06:57:47;17.50;99.90
42907;DHT22;28552;51.146;6.576;2022-09-09T07:00:48;17.60;99.90
42907;DHT22;28552;51.146;6.576;2022-09-09T07:03:52;17.60;99.90
42907;DHT22;28552;51.146;6.576;2022-09-09T07:06:52;17.70;99.90
42907;DHT22;28552;51.146;6.576;2022-09-09T07:09:53;17.70;99.90
42907;DHT22;28552;51.146;6.576;2022-09-09T07:12:54;17.60;99.90
42907;DHT22;28552;51.146;6.576;2022-09-09T07:15:55;17.60;99.90
42907;DHT22;28552;51.146;6.576;2022-09-09T07:18:55;17.60;99.90
42907;DHT22;28552;51.146;6.576;2022-09-09T07:21:58;17.70;99.90
42907;DHT22;28552;51.146;6.576;2022-09-09T07:24:58;18.00;99.90
42907;DHT22;28552;51.146;6.576;2022-09-09T07:27:59;18.20;99.90
42907;DHT22;28552;51.146;6.576;2022-09-09T07:31:01;18.30;99.90
42907;DHT22;28552;51.146;6.576;2022-09-09T07:34:04;18.30;99.90
42907;DHT22;28552;51.146;6.576;2022-09-09T07:37:05;18.30;99.90
42907;DHT22;28552;51.146;6.576;2022-09-09T07:40:05;18.30;99.90
42907;DHT22;28552;51.146;6.576;2022-09-09T07:43:06;18.40;99.90
42907;DHT22;28552;51.146;6.576;2022-09-09T07:46:08;18.40;99.90
42907;DHT22;28552;51.146;6.576;2022-09-09T07:49:10;18.50;99.90
42907;DHT22;28552;51.146;6.576;2022-09-09T07:52:11;18.60;99.90
42907;DHT22;28552;51.146;6.576;2022-09-09T07:55:12;18.50;99.90
42907;DHT22;28552;51.146;6.576;2022-09-09T07:58:12;18.70;99.90
42907;DHT22;28552;51.146;6.576;2022-09-09T08:01:16;19.00;99.90
42907;DHT22;28552;51.146;6.576;2022-09-09T08:04:19;19.00;99.90
42907;DHT22;28552;51.146;6.576;2022-09-09T08:07:20;19.10;99.90
42907;DHT22;28552;51.146;6.576;2022-09-09T08:10:21;19.20;99.90
42907;DHT22;28552;51.146;6.576;2022-09-09T08:13:22;19.30;99.90
42907;DHT22;28552;51.146;6.576;2022-09-09T08:16:26;19.60;99.90
42907;DHT22;28552;51.146;6.576;2022-09-09T08:19:27;19.90;99.90
42907;DHT22;28552;51.146;6.576;2022-09-09T08:22:30;20.00;99.90
42907;DHT22;28552;51.146;6.576;2022-09-09T08:25:30;20.10;99.90
42907;DHT22;28552;51.146;6.576;2022-09-09T08:28:31;20.20;99.90
42907;DHT22;28552;51.146;6.576;2022-09-09T08:31:34;20.20;99.90
42907;DHT22;28552;51.146;6.576;2022-09-09T08:34:35;20.10;99.90
42907;DHT22;28552;51.146;6.576;2022-09-09T08:37:35;19.90;99.90
42907;DHT22;28552;51.146;6.576;2022-09-09T08:40:39;19.80;99.90
42907;DHT22;28552;51.146;6.576;2022-09-09T08:43:45;19.70;99.90
42907;DHT22;28552;51.146;6.576;2022-09-09T08:46:51;19.70;99.90
42907;DHT22;28552;51.146;6.576;2022-09-09T08:53:22;19.60;99.90
42907;DHT22;28552;51.146;6.576;2022-09-09T08:56:24;19.60;99.90
42907;DHT22;28552;51.146;6.576;2022-09-09T08:59:26;19.50;99.90
42907;DHT22;28552;51.146;6.576;2022-09-09T09:06:04;19.30;99.90
42907;DHT22;28552;51.146;6.576;2022-09-09T09:12:32;19.20;99.90
42907;DHT22;28552;51.146;6.576;2022-09-09T09:15:37;19.10;99.90
42907;DHT22;28552;51.146;6.576;2022-09-09T09:18:38;19.10;99.90
42907;DHT22;28552;51.146;6.576;2022-09-09T09:21:44;19.10;99.90
42907;DHT22;28552;51.146;6.576;2022-09-09T09:28:07;19.30;99.90
42907;DHT22;28552;51.146;6.576;2022-09-09T09:31:11;19.30;99.90
42907;DHT22;28552;51.146;6.576;2022-09-09T09:34:12;19.30;99.90
42907;DHT22;28552;51.146;6.576;2022-09-09T09:37:18;19.40;99.90
42907;DHT22;28552;51.146;6.576;2022-09-09T09:40:22;19.40;99.90
42907;DHT22;28552;51.146;6.576;2022-09-09T09:43:27;19.40;99.90
42907;DHT22;28552;51.146;6.576;2022-09-09T09:46:28;19.50;99.90
42907;DHT22;28552;51.146;6.576;2022-09-09T09:49:29;19.60;99.90
42907;DHT22;28552;51.146;6.576;2022-09-09T09:52:31;19.80;99.90
42907;DHT22;28552;51.146;6.576;2022-09-09T09:55:34;19.90;99.90
42907;DHT22;28552;51.146;6.576;2022-09-09T09:58:50;20.00;99.90
42907;DHT22;28552;51.146;6.576;2022-09-09T10:01:51;20.00;99.90
42907;DHT22;28552;51.146;6.576;2022-09-09T10:05:12;20.20;99.90
42907;DHT22;28552;51.146;6.576;2022-09-09T10:08:15;20.20;99.90
42907;DHT22;28552;51.146;6.576;2022-09-09T10:11:30;20.20;99.90
42907;DHT22;28552;51.146;6.576;2022-09-09T10:18:01;20.10;99.90
42907;DHT22;28552;51.146;6.576;2022-09-09T10:21:16;20.10;99.90
42907;DHT22;28552;51.146;6.576;2022-09-09T10:24:25;20.20;99.90
42907;DHT22;28552;51.146;6.576;2022-09-09T10:27:54;20.20;99.90
42907;DHT22;28552;51.146;6.576;2022-09-09T10:31:06;20.20;99.90
42907;DHT22;28552;51.146;6.576;2022-09-09T10:34:47;20.20;99.90
42907;DHT22;28552;51.146;6.576;2022-09-09T10:41:25;20.50;99.90
42907;DHT22;28552;51.146;6.576;2022-09-09T10:44:50;20.50;99.90
42907;DHT22;28552;51.146;6.576;2022-09-09T10:48:18;20.50;99.90
42907;DHT22;28552;51.146;6.576;2022-09-09T10:54:53;20.40;99.90
42907;DHT22;28552;51.146;6.576;2022-09-09T10:57:58;20.40;99.90
42907;DHT22;28552;51.146;6.576;2022-09-09T11:07:34;20.20;99.90
42907;DHT22;28552;51.146;6.576;2022-09-09T11:10:51;20.00;99.90
42907;DHT22;28552;51.146;6.576;2022-09-09T11:14:18;20.10;99.90
42907;DHT22;28552;51.146;6.576;2022-09-09T11:17:24;20.10;99.90
42907;DHT22;28552;51.146;6.576;2022-09-09T11:20:27;20.30;99.90
42907;DHT22;28552;51.146;6.576;2022-09-09T11:23:40;20.30;99.90
42907;DHT22;28552;51.146;6.576;2022-09-09T11:26:45;20.30;99.90
42907;DHT22;28552;51.146;6.576;2022-09-09T11:36:43;20.40;99.90
42907;DHT22;28552;51.146;6.576;2022-09-09T11:43:17;20.30;99.90
42907;DHT22;28552;51.146;6.576;2022-09-09T11:46:31;20.20;99.90
42907;DHT22;28552;51.146;6.576;2022-09-09T11:49:42;20.20;99.90
42907;DHT22;28552;51.146;6.576;2022-09-09T11:52:45;20.20;99.90
42907;DHT22;28552;51.146;6.576;2022-09-09T11:55:46;20.20;99.90
42907;DHT22;28552;51.146;6.576;2022-09-09T11:59:04;20.30;99.90
42907;DHT22;28552;51.146;6.576;2022-09-09T12:02:22;20.50;99.90
42907;DHT22;28552;51.146;6.576;2022-09-09T12:05:36;20.70;99.90
42907;DHT22;28552;51.146;6.576;2022-09-09T12:08:42;20.80;99.90
42907;DHT22;28552;51.146;6.576;2022-09-09T12:11:43;21.00;99.90
42907;DHT22;28552;51.146;6.576;2022-09-09T12:14:56;21.00;99.90
42907;DHT22;28552;51.146;6.576;2022-09-09T12:17:58;21.00;99.90
42907;DHT22;28552;51.146;6.576;2022-09-09T12:24:25;21.00;99.90
42907;DHT22;28552;51.146;6.576;2022-09-09T12:27:33;21.00;99.90
42907;DHT22;28552;51.146;6.576;2022-09-09T12:30:43;20.90;99.90
42907;DHT22;28552;51.146;6.576;2022-09-09T12:33:46;20.80;99.90
42907;DHT22;28552;51.146;6.576;2022-09-09T12:36:55;20.70;99.90
42907;DHT22;28552;51.146;6.576;2022-09-09T12:39:59;20.60;99.90
42907;DHT22;28552;51.146;6.576;2022-09-09T12:43:00;20.50;99.90
42907;DHT22;28552;51.146;6.576;2022-09-09T12:46:06;20.40;99.90
42907;DHT22;28552;51.146;6.576;2022-09-09T12:52:34;20.10;99.90
42907;DHT22;28552;51.146;6.576;2022-09-09T12:55:38;19.90;99.90
42907;DHT22;28552;51.146;6.576;2022-09-09T12:58:45;19.70;99.90
42907;DHT22;28552;51.146;6.576;2022-09-09T13:01:56;19.70;99.90
42907;DHT22;28552;51.146;6.576;2022-09-09T13:05:06;19.80;99.90
42907;DHT22;28552;51.146;6.576;2022-09-09T13:08:11;20.00;99.90
42907;DHT22;28552;51.146;6.576;2022-09-09T13:11:15;20.10;99.90
42907;DHT22;28552;51.146;6.576;2022-09-09T13:14:23;20.20;99.90
42907;DHT22;28552;51.146;6.576;2022-09-09T13:17:27;20.40;99.90
42907;DHT22;28552;51.146;6.576;2022-09-09T13:20:29;20.50;99.90
42907;DHT22;28552;51.146;6.576;2022-09-09T13:23:35;20.60;99.90
42907;DHT22;28552;51.146;6.576;2022-09-09T13:26:35;20.70;99.90
42907;DHT22;28552;51.146;6.576;2022-09-09T13:29:36;20.70;99.90
42907;DHT22;28552;51.146;6.576;2022-09-09T13:32:37;20.60;99.90
42907;DHT22;28552;51.146;6.576;2022-09-09T13:35:55;20.40;99.90
42907;DHT22;28552;51.146;6.576;2022-09-09T13:38:58;20.20;99.90
42907;DHT22;28552;51.146;6.576;2022-09-09T13:42:00;19.90;99.90
42907;DHT22;28552;51.146;6.576;2022-09-09T13:45:04;19.60;99.90
42907;DHT22;28552;51.146;6.576;2022-09-09T13:48:18;19.30;99.90
42907;DHT22;28552;51.146;6.576;2022-09-09T13:51:32;19.30;99.90
42907;DHT22;28552;51.146;6.576;2022-09-09T13:54:34;19.40;99.90
42907;DHT22;28552;51.146;6.576;2022-09-09T13:57:35;19.70;99.90
42907;DHT22;28552;51.146;6.576;2022-09-09T14:00:36;19.90;99.90
42907;DHT22;28552;51.146;6.576;2022-09-09T14:03:37;20.10;99.90
42907;DHT22;28552;51.146;6.576;2022-09-09T14:06:38;20.30;99.90
42907;DHT22;28552;51.146;6.576;2022-09-09T14:09:40;20.40;99.90
42907;DHT22;28552;51.146;6.576;2022-09-09T14:12:41;20.40;99.90
42907;DHT22;28552;51.146;6.576;2022-09-09T14:15:41;20.20;99.90
42907;DHT22;28552;51.146;6.576;2022-09-09T14:18:42;20.10;99.90
42907;DHT22;28552;51.146;6.576;2022-09-09T14:21:42;19.80;99.90
42907;DHT22;28552;51.146;6.576;2022-09-09T14:24:43;19.40;99.90
42907;DHT22;28552;51.146;6.576;2022-09-09T14:27:44;18.90;99.90
42907;DHT22;28552;51.146;6.576;2022-09-09T14:30:46;18.50;99.90
42907;DHT22;28552;51.146;6.576;2022-09-09T14:33:47;18.30;99.90
42907;DHT22;28552;51.146;6.576;2022-09-09T14:36:47;18.00;99.90
42907;DHT22;28552;51.146;6.576;2022-09-09T14:39:48;17.50;99.90
42907;DHT22;28552;51.146;6.576;2022-09-09T14:42:50;16.90;99.90
42907;DHT22;28552;51.146;6.576;2022-09-09T14:45:53;16.40;99.90
42907;DHT22;28552;51.146;6.576;2022-09-09T14:48:54;15.90;99.90
42907;DHT22;28552;51.146;6.576;2022-09-09T14:51:54;15.60;99.90
42907;DHT22;28552;51.146;6.576;2022-09-09T14:54:55;15.50;99.90
42907;DHT22;28552;51.146;6.576;2022-09-09T14:57:55;15.50;99.90
42907;DHT22;28552;51.146;6.576;2022-09-09T15:01:03;15.60;99.90
42907;DHT22;28552;51.146;6.576;2022-09-09T15:04:05;15.70;99.90
42907;DHT22;28552;51.146;6.576;2022-09-09T15:07:06;16.00;99.90
42907;DHT22;28552;51.146;6.576;2022-09-09T15:10:07;16.20;99.90
42907;DHT22;28552;51.146;6.576;2022-09-09T15:13:07;16.40;99.90
42907;DHT22;28552;51.146;6.576;2022-09-09T15:16:14;16.60;99.90
42907;DHT22;28552;51.146;6.576;2022-09-09T15:19:15;16.80;99.90
42907;DHT22;28552;51.146;6.576;2022-09-09T15:22:15;16.90;99.90
42907;DHT22;28552;51.146;6.576;2022-09-09T15:25:16;17.00;99.90
42907;DHT22;28552;51.146;6.576;2022-09-09T15:28:18;17.10;99.90
42907;DHT22;28552;51.146;6.576;2022-09-09T15:31:22;17.20;99.90
42907;DHT22;28552;51.146;6.576;2022-09-09T15:34:23;17.20;99.90
42907;DHT22;28552;51.146;6.576;2022-09-09T15:37:23;17.20;99.90
42907;DHT22;28552;51.146;6.576;2022-09-09T15:40:24;17.10;99.90
42907;DHT22;28552;51.146;6.576;2022-09-09T15:43:24;17.10;99.90
42907;DHT22;28552;51.146;6.576;2022-09-09T15:46:34;16.90;99.90
42907;DHT22;28552;51.146;6.576;2022-09-09T15:49:36;16.80;99.90
42907;DHT22;28552;51.146;6.576;2022-09-09T15:52:36;16.80;99.90
42907;DHT22;28552;51.146;6.576;2022-09-09T15:55:37;16.80;99.90
42907;DHT22;28552;51.146;6.576;2022-09-09T15:58:38;16.80;99.90
42907;DHT22;28552;51.146;6.576;2022-09-09T16:01:39;16.80;99.90
42907;DHT22;28552;51.146;6.576;2022-09-09T16:04:39;16.80;99.90
42907;DHT22;28552;51.146;6.576;2022-09-09T16:07:40;16.80;99.90
42907;DHT22;28552;51.146;6.576;2022-09-09T16:10:42;16.70;99.90
42907;DHT22;28552;51.146;6.576;2022-09-09T16:13:44;16.70;99.90
42907;DHT22;28552;51.146;6.576;2022-09-09T16:16:45;16.70;99.90
42907;DHT22;28552;51.146;6.576;2022-09-09T16:19:45;16.70;99.90
42907;DHT22;28552;51.146;6.576;2022-09-09T16:22:46;16.70;99.90
42907;DHT22;28552;51.146;6.576;2022-09-09T16:25:54;16.70;99.90
42907;DHT22;28552;51.146;6.576;2022-09-09T16:28:56;16.60;99.90
42907;DHT22;28552;51.146;6.576;2022-09-09T16:31:57;16.70;99.90
42907;DHT22;28552;51.146;6.576;2022-09-09T16:34:59;16.60;99.90
42907;DHT22;28552;51.146;6.576;2022-09-09T16:37:59;16.60;99.90
42907;DHT22;28552;51.146;6.576;2022-09-09T16:41:00;16.60;99.90
42907;DHT22;28552;51.146;6.576;2022-09-09T16:44:03;16.80;99.90
42907;DHT22;28552;51.146;6.576;2022-09-09T16:47:04;16.80;99.90
42907;DHT22;28552;51.146;6.576;2022-09-09T16:50:05;16.90;99.90
42907;DHT22;28552;51.146;6.576;2022-09-09T16:53:06;16.90;99.90
42907;DHT22;28552;51.146;6.576;2022-09-09T16:56:11;16.90;99.90
42907;DHT22;28552;51.146;6.576;2022-09-09T16:59:14;17.10;99.90
42907;DHT22;28552;51.146;6.576;2022-09-09T17:02:15;17.20;99.90
42907;DHT22;28552;51.146;6.576;2022-09-09T17:05:15;17.20;99.90
42907;DHT22;28552;51.146;6.576;2022-09-09T17:08:16;17.20;99.90
42907;DHT22;28552;51.146;6.576;2022-09-09T17:11:18;17.30;99.90
42907;DHT22;28552;51.146;6.576;2022-09-09T17:14:20;17.30;99.90
42907;DHT22;28552;51.146;6.576;2022-09-09T17:17:21;17.30;99.90
42907;DHT22;28552;51.146;6.576;2022-09-09T17:20:21;17.30;99.90
42907;DHT22;28552;51.146;6.576;2022-09-09T17:23:22;17.20;99.90
42907;DHT22;28552;51.146;6.576;2022-09-09T17:26:25;17.20;99.90
42907;DHT22;28552;51.146;6.576;2022-09-09T17:29:27;17.10;99.90
42907;DHT22;28552;51.146;6.576;2022-09-09T17:32:28;17.10;99.90
42907;DHT22;28552;51.146;6.576;2022-09-09T17:35:30;17.00;99.90
42907;DHT22;28552;51.146;6.576;2022-09-09T17:38:31;16.90;99.90
42907;DHT22;28552;51.146;6.576;2022-09-09T17:41:34;16.90;99.90
42907;DHT22;28552;51.146;6.576;2022-09-09T17:44:35;16.80;99.90
42907;DHT22;28552;51.146;6.576;2022-09-09T17:47:35;16.80;99.90
42907;DHT22;28552;51.146;6.576;2022-09-09T17:50:36;16.70;99.90
42907;DHT22;28552;51.146;6.576;2022-09-09T17:53:41;16.60;99.90
42907;DHT22;28552;51.146;6.576;2022-09-09T17:56:42;16.60;99.90
42907;DHT22;28552;51.146;6.576;2022-09-09T17:59:44;16.60;99.90
42907;DHT22;28552;51.146;6.576;2022-09-09T18:02:44;16.60;99.90
42907;DHT22;28552;51.146;6.576;2022-09-09T18:05:45;16.50;99.90
42907;DHT22;28552;51.146;6.576;2022-09-09T18:08:51;16.50;99.90
42907;DHT22;28552;51.146;6.576;2022-09-09T18:11:53;16.50;99.90
42907;DHT22;28552;51.146;6.576;2022-09-09T18:14:55;16.50;99.90
42907;DHT22;28552;51.146;6.576;2022-09-09T18:17:56;16.40;99.90
42907;DHT22;28552;51.146;6.576;2022-09-09T18:21:02;16.50;99.90
42907;DHT22;28552;51.146;6.576;2022-09-09T18:24:05;16.40;99.90
42907;DHT22;28552;51.146;6.576;2022-09-09T18:27:06;16.40;99.90
42907;DHT22;28552;51.146;6.576;2022-09-09T18:30:07;16.40;99.90
42907;DHT22;28552;51.146;6.576;2022-09-09T18:33:09;16.40;99.90
42907;DHT22;28552;51.146;6.576;2022-09-09T18:36:16;16.40;99.90
42907;DHT22;28552;51.146;6.576;2022-09-09T18:39:17;16.40;99.90
42907;DHT22;28552;51.146;6.576;2022-09-09T18:42:18;16.40;99.90
42907;DHT22;28552;51.146;6.576;2022-09-09T18:45:18;16.30;99.90
42907;DHT22;28552;51.146;6.576;2022-09-09T18:48:19;16.30;99.90
42907;DHT22;28552;51.146;6.576;2022-09-09T18:51:23;16.30;99.90
42907;DHT22;28552;51.146;6.576;2022-09-09T18:54:27;16.30;99.90
42907;DHT22;28552;51.146;6.576;2022-09-09T18:57:29;16.30;99.90
42907;DHT22;28552;51.146;6.576;2022-09-09T19:00:30;16.30;99.90
42907;DHT22;28552;51.146;6.576;2022-09-09T19:03:34;16.30;99.90
42907;DHT22;28552;51.146;6.576;2022-09-09T19:06:39;16.30;99.90
42907;DHT22;28552;51.146;6.576;2022-09-09T19:09:40;16.30;99.90
42907;DHT22;28552;51.146;6.576;2022-09-09T19:12:41;16.20;99.90
42907;DHT22;28552;51.146;6.576;2022-09-09T19:15:41;16.20;99.90
42907;DHT22;28552;51.146;6.576;2022-09-09T19:18:42;16.20;99.90
42907;DHT22;28552;51.146;6.576;2022-09-09T19:21:47;16.20;99.90
42907;DHT22;28552;51.146;6.576;2022-09-09T19:24:48;16.20;99.90
42907;DHT22;28552;51.146;6.576;2022-09-09T19:27:49;16.10;99.90
42907;DHT22;28552;51.146;6.576;2022-09-09T19:30:49;16.20;99.90
42907;DHT22;28552;51.146;6.576;2022-09-09T19:33:51;16.20;99.90
42907;DHT22;28552;51.146;6.576;2022-09-09T19:36:52;16.20;99.90
42907;DHT22;28552;51.146;6.576;2022-09-09T19:39:52;16.20;99.90
42907;DHT22;28552;51.146;6.576;2022-09-09T19:42:53;16.20;99.90
42907;DHT22;28552;51.146;6.576;2022-09-09T19:45:57;16.20;99.90
42907;DHT22;28552;51.146;6.576;2022-09-09T19:48:58;16.20;99.90
42907;DHT22;28552;51.146;6.576;2022-09-09T19:52:00;16.20;99.90
42907;DHT22;28552;51.146;6.576;2022-09-09T19:55:01;16.20;99.90
42907;DHT22;28552;51.146;6.576;2022-09-09T19:58:01;16.10;99.90
42907;DHT22;28552;51.146;6.576;2022-09-09T20:01:05;16.10;99.90
42907;DHT22;28552;51.146;6.576;2022-09-09T20:04:07;16.10;99.90
42907;DHT22;28552;51.146;6.576;2022-09-09T20:07:07;16.10;99.90
42907;DHT22;28552;51.146;6.576;2022-09-09T20:10:08;16.10;99.90
42907;DHT22;28552;51.146;6.576;2022-09-09T20:13:09;16.10;99.90
42907;DHT22;28552;51.146;6.576;2022-09-09T20:16:13;16.00;99.90
42907;DHT22;28552;51.146;6.576;2022-09-09T20:19:15;16.00;99.90
42907;DHT22;28552;51.146;6.576;2022-09-09T20:22:15;16.00;99.90
42907;DHT22;28552;51.146;6.576;2022-09-09T20:25:17;16.00;99.90
42907;DHT22;28552;51.146;6.576;2022-09-09T20:28:17;16.00;99.90